sensor_id;sensor_type;location;lat;lon;timestamp;P1;durP1;ratioP1;P2;durP2;ratioP2
14907;SDS011;7545;52.092;7.006;2022-07-06T00:01:15;4.03;;;1.65;;
14907;SDS011;7545;52.092;7.006;2022-07-06T00:03:41;7.38;;;1.60;;
14907;SDS011;7545;52.092;7.006;2022-07-06T00:06:06;2.75;;;1.50;;
14907;SDS011;7545;52.092;7.006;2022-07-06T00:08:32;1.60;;;1.50;;
14907;SDS011;7545;52.092;7.006;2022-07-06T00:10:58;2.10;;;1.38;;
14907;SDS011;7545;52.092;7.006;2022-07-06T00:13:24;3.30;;;1.58;;
14907;SDS011;7545;52.092;7.006;2022-07-06T00:15:49;1.60;;;1.40;;
14907;SDS011;7545;52.092;7.006;2022-07-06T00:18:15;2.30;;;1.40;;
14907;SDS011;7545;52.092;7.006;2022-07-06T00:20:41;2.08;;;1.60;;
14907;SDS011;7545;52.092;7.006;2022-07-06T00:23:06;2.10;;;1.40;;
14907;SDS011;7545;52.092;7.006;2022-07-06T00:25:32;1.80;;;1.50;;
14907;SDS011;7545;52.092;7.006;2022-07-06T00:27:57;4.28;;;1.80;;
14907;SDS011;7545;52.092;7.006;2022-07-06T00:30:23;4.43;;;1.80;;
14907;SDS011;7545;52.092;7.006;2022-07-06T00:32:49;2.47;;;1.73;;
14907;SDS011;7545;52.092;7.006;2022-07-06T00:35:14;2.15;;;1.80;;
14907;SDS011;7545;52.092;7.006;2022-07-06T00:37:40;2.10;;;1.75;;
14907;SDS011;7545;52.092;7.006;2022-07-06T00:40:06;3.78;;;2.17;;
14907;SDS011;7545;52.092;7.006;2022-07-06T00:42:39;2.67;;;1.60;;
14907;SDS011;7545;52.092;7.006;2022-07-06T00:45:06;3.05;;;1.65;;
14907;SDS011;7545;52.092;7.006;2022-07-06T00:47:32;1.60;;;1.48;;
14907;SDS011;7545;52.092;7.006;2022-07-06T00:49:57;2.63;;;1.42;;
14907;SDS011;7545;52.092;7.006;2022-07-06T00:52:42;2.33;;;1.70;;
14907;SDS011;7545;52.092;7.006;2022-07-06T00:55:10;3.85;;;1.65;;
14907;SDS011;7545;52.092;7.006;2022-07-06T00:57:36;2.25;;;1.77;;
14907;SDS011;7545;52.092;7.006;2022-07-06T01:00:06;3.28;;;2.03;;
14907;SDS011;7545;52.092;7.006;2022-07-06T01:02:34;3.00;;;1.80;;
14907;SDS011;7545;52.092;7.006;2022-07-06T01:05:01;3.58;;;1.50;;
14907;SDS011;7545;52.092;7.006;2022-07-06T01:07:31;3.28;;;1.83;;
14907;SDS011;7545;52.092;7.006;2022-07-06T01:09:57;2.67;;;1.98;;
14907;SDS011;7545;52.092;7.006;2022-07-06T01:12:22;2.50;;;2.25;;
14907;SDS011;7545;52.092;7.006;2022-07-06T01:14:49;5.57;;;1.88;;
14907;SDS011;7545;52.092;7.006;2022-07-06T01:17:15;3.10;;;1.90;;
14907;SDS011;7545;52.092;7.006;2022-07-06T01:19:41;1.92;;;1.55;;
14907;SDS011;7545;52.092;7.006;2022-07-06T01:22:08;2.58;;;1.60;;
14907;SDS011;7545;52.092;7.006;2022-07-06T01:24:37;3.63;;;2.38;;
14907;SDS011;7545;52.092;7.006;2022-07-06T01:27:04;3.83;;;2.08;;
14907;SDS011;7545;52.092;7.006;2022-07-06T01:29:30;2.35;;;1.73;;
14907;SDS011;7545;52.092;7.006;2022-07-06T01:31:57;3.05;;;2.05;;
14907;SDS011;7545;52.092;7.006;2022-07-06T01:34:22;3.08;;;1.88;;
14907;SDS011;7545;52.092;7.006;2022-07-06T01:36:48;2.25;;;1.73;;
14907;SDS011;7545;52.092;7.006;2022-07-06T01:39:14;2.90;;;1.85;;
14907;SDS011;7545;52.092;7.006;2022-07-06T01:41:39;2.25;;;1.70;;
14907;SDS011;7545;52.092;7.006;2022-07-06T01:44:05;3.30;;;1.90;;
14907;SDS011;7545;52.092;7.006;2022-07-06T01:46:32;2.33;;;1.92;;
14907;SDS011;7545;52.092;7.006;2022-07-06T01:48:57;3.08;;;1.98;;
14907;SDS011;7545;52.092;7.006;2022-07-06T01:51:23;4.80;;;1.92;;
14907;SDS011;7545;52.092;7.006;2022-07-06T01:53:49;5.05;;;2.13;;
14907;SDS011;7545;52.092;7.006;2022-07-06T01:56:15;3.45;;;1.98;;
14907;SDS011;7545;52.092;7.006;2022-07-06T01:58:42;4.45;;;1.98;;
14907;SDS011;7545;52.092;7.006;2022-07-06T02:01:09;5.07;;;2.33;;
14907;SDS011;7545;52.092;7.006;2022-07-06T02:03:36;3.00;;;2.00;;
14907;SDS011;7545;52.092;7.006;2022-07-06T02:06:02;2.65;;;1.52;;
14907;SDS011;7545;52.092;7.006;2022-07-06T02:08:29;9.10;;;3.10;;
14907;SDS011;7545;52.092;7.006;2022-07-06T02:13:31;3.25;;;1.80;;
14907;SDS011;7545;52.092;7.006;2022-07-06T02:15:56;3.28;;;2.10;;
14907;SDS011;7545;52.092;7.006;2022-07-06T02:18:22;2.63;;;2.40;;
14907;SDS011;7545;52.092;7.006;2022-07-06T02:20:48;2.15;;;1.60;;
14907;SDS011;7545;52.092;7.006;2022-07-06T02:23:13;2.05;;;1.85;;
14907;SDS011;7545;52.092;7.006;2022-07-06T02:25:39;3.63;;;1.85;;
14907;SDS011;7545;52.092;7.006;2022-07-06T02:28:05;4.90;;;2.13;;
14907;SDS011;7545;52.092;7.006;2022-07-06T02:30:30;3.67;;;1.45;;
14907;SDS011;7545;52.092;7.006;2022-07-06T02:32:56;4.35;;;2.03;;
14907;SDS011;7545;52.092;7.006;2022-07-06T02:35:22;4.35;;;2.22;;
14907;SDS011;7545;52.092;7.006;2022-07-06T02:37:47;3.40;;;1.80;;
14907;SDS011;7545;52.092;7.006;2022-07-06T02:40:13;2.83;;;1.77;;
14907;SDS011;7545;52.092;7.006;2022-07-06T02:42:38;3.35;;;1.77;;
14907;SDS011;7545;52.092;7.006;2022-07-06T02:45:05;2.10;;;1.90;;
14907;SDS011;7545;52.092;7.006;2022-07-06T02:47:30;3.80;;;2.08;;
14907;SDS011;7545;52.092;7.006;2022-07-06T02:49:56;3.20;;;1.80;;
14907;SDS011;7545;52.092;7.006;2022-07-06T02:52:22;2.90;;;1.67;;
14907;SDS011;7545;52.092;7.006;2022-07-06T02:54:48;3.53;;;1.85;;
14907;SDS011;7545;52.092;7.006;2022-07-06T02:57:14;3.58;;;1.98;;
14907;SDS011;7545;52.092;7.006;2022-07-06T02:59:40;3.88;;;1.50;;
14907;SDS011;7545;52.092;7.006;2022-07-06T03:02:06;1.65;;;1.50;;
14907;SDS011;7545;52.092;7.006;2022-07-06T03:04:32;2.60;;;1.80;;
14907;SDS011;7545;52.092;7.006;2022-07-06T03:06:58;2.25;;;1.65;;
14907;SDS011;7545;52.092;7.006;2022-07-06T03:09:24;1.95;;;1.73;;
14907;SDS011;7545;52.092;7.006;2022-07-06T03:11:49;2.75;;;1.58;;
14907;SDS011;7545;52.092;7.006;2022-07-06T03:14:15;3.30;;;1.63;;
14907;SDS011;7545;52.092;7.006;2022-07-06T03:16:41;3.25;;;1.55;;
14907;SDS011;7545;52.092;7.006;2022-07-06T03:19:06;3.53;;;1.70;;
14907;SDS011;7545;52.092;7.006;2022-07-06T03:21:32;4.03;;;1.52;;
14907;SDS011;7545;52.092;7.006;2022-07-06T03:23:58;2.10;;;1.40;;
14907;SDS011;7545;52.092;7.006;2022-07-06T03:26:24;2.00;;;1.65;;
14907;SDS011;7545;52.092;7.006;2022-07-06T03:28:50;2.30;;;1.48;;
14907;SDS011;7545;52.092;7.006;2022-07-06T03:31:16;2.42;;;1.40;;
14907;SDS011;7545;52.092;7.006;2022-07-06T03:33:42;1.60;;;1.50;;
14907;SDS011;7545;52.092;7.006;2022-07-06T03:36:07;2.55;;;1.17;;
14907;SDS011;7545;52.092;7.006;2022-07-06T03:38:34;4.20;;;2.67;;
14907;SDS011;7545;52.092;7.006;2022-07-06T03:41:00;2.97;;;1.50;;
14907;SDS011;7545;52.092;7.006;2022-07-06T03:43:25;4.35;;;1.55;;
14907;SDS011;7545;52.092;7.006;2022-07-06T03:45:51;2.35;;;1.55;;
14907;SDS011;7545;52.092;7.006;2022-07-06T03:48:17;3.08;;;1.77;;
14907;SDS011;7545;52.092;7.006;2022-07-06T03:50:42;1.80;;;1.40;;
14907;SDS011;7545;52.092;7.006;2022-07-06T03:53:08;2.90;;;1.92;;
14907;SDS011;7545;52.092;7.006;2022-07-06T03:55:34;2.38;;;1.30;;
14907;SDS011;7545;52.092;7.006;2022-07-06T03:57:59;4.82;;;1.55;;
14907;SDS011;7545;52.092;7.006;2022-07-06T04:00:25;2.53;;;1.65;;
14907;SDS011;7545;52.092;7.006;2022-07-06T04:02:50;1.77;;;1.40;;
14907;SDS011;7545;52.092;7.006;2022-07-06T04:05:16;1.80;;;1.45;;
14907;SDS011;7545;52.092;7.006;2022-07-06T04:07:46;3.30;;;1.83;;
14907;SDS011;7545;52.092;7.006;2022-07-06T04:10:13;1.73;;;1.60;;
14907;SDS011;7545;52.092;7.006;2022-07-06T04:12:39;2.53;;;1.45;;
14907;SDS011;7545;52.092;7.006;2022-07-06T04:15:08;4.50;;;1.38;;
14907;SDS011;7545;52.092;7.006;2022-07-06T04:17:35;2.28;;;1.40;;
14907;SDS011;7545;52.092;7.006;2022-07-06T04:20:22;4.05;;;1.58;;
14907;SDS011;7545;52.092;7.006;2022-07-06T04:22:49;3.83;;;1.70;;
14907;SDS011;7545;52.092;7.006;2022-07-06T04:25:15;2.00;;;1.40;;
14907;SDS011;7545;52.092;7.006;2022-07-06T04:27:40;4.30;;;2.53;;
14907;SDS011;7545;52.092;7.006;2022-07-06T04:30:07;1.52;;;1.40;;
14907;SDS011;7545;52.092;7.006;2022-07-06T04:32:33;1.90;;;1.50;;
14907;SDS011;7545;52.092;7.006;2022-07-06T04:35:00;3.05;;;1.52;;
14907;SDS011;7545;52.092;7.006;2022-07-06T04:37:26;2.55;;;1.30;;
14907;SDS011;7545;52.092;7.006;2022-07-06T04:39:52;2.38;;;1.40;;
14907;SDS011;7545;52.092;7.006;2022-07-06T04:42:17;3.63;;;2.28;;
14907;SDS011;7545;52.092;7.006;2022-07-06T04:44:43;5.28;;;1.48;;
14907;SDS011;7545;52.092;7.006;2022-07-06T04:47:08;2.60;;;1.88;;
14907;SDS011;7545;52.092;7.006;2022-07-06T04:49:34;2.63;;;1.60;;
14907;SDS011;7545;52.092;7.006;2022-07-06T04:52:00;2.10;;;1.27;;
14907;SDS011;7545;52.092;7.006;2022-07-06T04:54:25;2.28;;;1.67;;
14907;SDS011;7545;52.092;7.006;2022-07-06T04:56:51;2.30;;;1.52;;
14907;SDS011;7545;52.092;7.006;2022-07-06T04:59:17;3.88;;;1.38;;
14907;SDS011;7545;52.092;7.006;2022-07-06T05:01:42;2.95;;;1.63;;
14907;SDS011;7545;52.092;7.006;2022-07-06T05:04:08;7.35;;;2.58;;
14907;SDS011;7545;52.092;7.006;2022-07-06T05:06:34;2.05;;;1.58;;
14907;SDS011;7545;52.092;7.006;2022-07-06T05:09:00;1.73;;;1.30;;
14907;SDS011;7545;52.092;7.006;2022-07-06T05:11:26;5.57;;;1.50;;
14907;SDS011;7545;52.092;7.006;2022-07-06T05:13:52;2.05;;;1.50;;
14907;SDS011;7545;52.092;7.006;2022-07-06T05:16:18;3.63;;;1.48;;
14907;SDS011;7545;52.092;7.006;2022-07-06T05:18:44;1.60;;;1.27;;
14907;SDS011;7545;52.092;7.006;2022-07-06T05:21:09;2.67;;;1.40;;
14907;SDS011;7545;52.092;7.006;2022-07-06T05:23:35;2.97;;;1.23;;
14907;SDS011;7545;52.092;7.006;2022-07-06T05:26:00;1.67;;;1.33;;
14907;SDS011;7545;52.092;7.006;2022-07-06T05:28:26;2.25;;;1.20;;
14907;SDS011;7545;52.092;7.006;2022-07-06T05:30:52;2.85;;;1.20;;
14907;SDS011;7545;52.092;7.006;2022-07-06T05:33:18;2.28;;;1.58;;
14907;SDS011;7545;52.092;7.006;2022-07-06T05:35:43;4.50;;;1.70;;
14907;SDS011;7545;52.092;7.006;2022-07-06T05:38:09;1.73;;;1.35;;
14907;SDS011;7545;52.092;7.006;2022-07-06T05:40:35;1.60;;;1.30;;
14907;SDS011;7545;52.092;7.006;2022-07-06T05:43:01;3.67;;;1.13;;
14907;SDS011;7545;52.092;7.006;2022-07-06T05:45:27;1.70;;;1.20;;
14907;SDS011;7545;52.092;7.006;2022-07-06T05:47:52;1.95;;;1.13;;
14907;SDS011;7545;52.092;7.006;2022-07-06T05:50:37;1.55;;;1.08;;
14907;SDS011;7545;52.092;7.006;2022-07-06T05:53:03;4.47;;;1.52;;
14907;SDS011;7545;52.092;7.006;2022-07-06T05:55:30;1.58;;;1.20;;
14907;SDS011;7545;52.092;7.006;2022-07-06T05:57:56;2.08;;;1.27;;
14907;SDS011;7545;52.092;7.006;2022-07-06T06:00:22;3.60;;;1.38;;
14907;SDS011;7545;52.092;7.006;2022-07-06T06:02:48;1.75;;;1.13;;
14907;SDS011;7545;52.092;7.006;2022-07-06T06:05:14;1.25;;;1.00;;
14907;SDS011;7545;52.092;7.006;2022-07-06T06:07:40;3.13;;;1.50;;
14907;SDS011;7545;52.092;7.006;2022-07-06T06:10:07;2.58;;;1.10;;
14907;SDS011;7545;52.092;7.006;2022-07-06T06:12:35;4.63;;;1.50;;
14907;SDS011;7545;52.092;7.006;2022-07-06T06:15:01;3.08;;;1.10;;
14907;SDS011;7545;52.092;7.006;2022-07-06T06:17:27;4.32;;;1.33;;
14907;SDS011;7545;52.092;7.006;2022-07-06T06:19:53;5.07;;;1.33;;
14907;SDS011;7545;52.092;7.006;2022-07-06T06:22:19;2.03;;;1.13;;
14907;SDS011;7545;52.092;7.006;2022-07-06T06:24:44;2.45;;;1.00;;
14907;SDS011;7545;52.092;7.006;2022-07-06T06:27:10;4.15;;;1.08;;
14907;SDS011;7545;52.092;7.006;2022-07-06T06:29:36;5.53;;;1.15;;
14907;SDS011;7545;52.092;7.006;2022-07-06T06:32:02;3.42;;;1.30;;
14907;SDS011;7545;52.092;7.006;2022-07-06T06:34:28;2.08;;;1.20;;
14907;SDS011;7545;52.092;7.006;2022-07-06T06:36:53;2.45;;;1.27;;
14907;SDS011;7545;52.092;7.006;2022-07-06T06:39:19;1.48;;;1.00;;
14907;SDS011;7545;52.092;7.006;2022-07-06T06:41:45;3.30;;;1.60;;
14907;SDS011;7545;52.092;7.006;2022-07-06T06:44:10;3.28;;;1.20;;
14907;SDS011;7545;52.092;7.006;2022-07-06T06:46:36;2.22;;;1.20;;
14907;SDS011;7545;52.092;7.006;2022-07-06T06:49:03;5.53;;;1.63;;
14907;SDS011;7545;52.092;7.006;2022-07-06T06:51:28;7.00;;;1.58;;
14907;SDS011;7545;52.092;7.006;2022-07-06T06:53:54;2.20;;;1.15;;
14907;SDS011;7545;52.092;7.006;2022-07-06T06:56:19;5.25;;;1.00;;
14907;SDS011;7545;52.092;7.006;2022-07-06T06:58:45;5.03;;;1.20;;
14907;SDS011;7545;52.092;7.006;2022-07-06T07:01:11;4.07;;;0.82;;
14907;SDS011;7545;52.092;7.006;2022-07-06T07:03:36;2.38;;;0.82;;
14907;SDS011;7545;52.092;7.006;2022-07-06T07:06:02;1.67;;;0.88;;
14907;SDS011;7545;52.092;7.006;2022-07-06T07:08:30;1.67;;;0.70;;
14907;SDS011;7545;52.092;7.006;2022-07-06T07:10:56;0.80;;;0.60;;
14907;SDS011;7545;52.092;7.006;2022-07-06T07:13:22;2.33;;;0.98;;
14907;SDS011;7545;52.092;7.006;2022-07-06T07:15:48;2.47;;;0.63;;
14907;SDS011;7545;52.092;7.006;2022-07-06T07:18:13;1.25;;;0.60;;
14907;SDS011;7545;52.092;7.006;2022-07-06T07:20:39;4.38;;;0.77;;
14907;SDS011;7545;52.092;7.006;2022-07-06T07:23:05;2.85;;;0.70;;
14907;SDS011;7545;52.092;7.006;2022-07-06T07:25:30;3.30;;;0.80;;
14907;SDS011;7545;52.092;7.006;2022-07-06T07:27:56;1.77;;;0.55;;
14907;SDS011;7545;52.092;7.006;2022-07-06T07:30:22;1.67;;;0.90;;
14907;SDS011;7545;52.092;7.006;2022-07-06T07:32:47;1.42;;;0.93;;
14907;SDS011;7545;52.092;7.006;2022-07-06T07:35:13;2.13;;;0.70;;
14907;SDS011;7545;52.092;7.006;2022-07-06T07:37:39;1.95;;;0.68;;
14907;SDS011;7545;52.092;7.006;2022-07-06T07:40:05;2.05;;;0.85;;
14907;SDS011;7545;52.092;7.006;2022-07-06T07:42:31;2.67;;;0.95;;
14907;SDS011;7545;52.092;7.006;2022-07-06T07:44:57;0.65;;;0.52;;
14907;SDS011;7545;52.092;7.006;2022-07-06T07:47:23;3.85;;;1.02;;
14907;SDS011;7545;52.092;7.006;2022-07-06T07:49:48;4.18;;;0.70;;
14907;SDS011;7545;52.092;7.006;2022-07-06T07:52:14;2.50;;;0.80;;
14907;SDS011;7545;52.092;7.006;2022-07-06T07:54:40;4.65;;;0.90;;
14907;SDS011;7545;52.092;7.006;2022-07-06T07:57:06;2.40;;;0.60;;
14907;SDS011;7545;52.092;7.006;2022-07-06T07:59:31;2.65;;;0.93;;
14907;SDS011;7545;52.092;7.006;2022-07-06T08:01:57;3.58;;;0.80;;
14907;SDS011;7545;52.092;7.006;2022-07-06T08:04:23;3.05;;;0.80;;
14907;SDS011;7545;52.092;7.006;2022-07-06T08:06:49;2.67;;;0.70;;
14907;SDS011;7545;52.092;7.006;2022-07-06T08:09:14;4.07;;;1.00;;
14907;SDS011;7545;52.092;7.006;2022-07-06T08:11:41;2.75;;;1.05;;
14907;SDS011;7545;52.092;7.006;2022-07-06T08:14:07;0.75;;;0.55;;
14907;SDS011;7545;52.092;7.006;2022-07-06T08:16:33;2.47;;;0.85;;
14907;SDS011;7545;52.092;7.006;2022-07-06T08:18:59;1.70;;;0.55;;
14907;SDS011;7545;52.092;7.006;2022-07-06T08:21:25;1.00;;;0.50;;
14907;SDS011;7545;52.092;7.006;2022-07-06T08:23:51;2.25;;;0.60;;
14907;SDS011;7545;52.092;7.006;2022-07-06T08:26:17;2.38;;;0.60;;
14907;SDS011;7545;52.092;7.006;2022-07-06T08:28:42;1.73;;;0.80;;
14907;SDS011;7545;52.092;7.006;2022-07-06T08:31:08;4.95;;;0.77;;
14907;SDS011;7545;52.092;7.006;2022-07-06T08:33:33;4.85;;;0.60;;
14907;SDS011;7545;52.092;7.006;2022-07-06T08:35:59;2.33;;;0.60;;
14907;SDS011;7545;52.092;7.006;2022-07-06T08:38:25;2.00;;;0.50;;
14907;SDS011;7545;52.092;7.006;2022-07-06T08:40:51;4.60;;;0.80;;
14907;SDS011;7545;52.092;7.006;2022-07-06T08:43:17;4.78;;;0.82;;
14907;SDS011;7545;52.092;7.006;2022-07-06T08:45:43;2.25;;;0.70;;
14907;SDS011;7545;52.092;7.006;2022-07-06T08:48:11;1.95;;;0.55;;
14907;SDS011;7545;52.092;7.006;2022-07-06T08:50:37;0.60;;;0.40;;
14907;SDS011;7545;52.092;7.006;2022-07-06T08:53:04;0.65;;;0.47;;
14907;SDS011;7545;52.092;7.006;2022-07-06T08:55:31;3.03;;;0.98;;
14907;SDS011;7545;52.092;7.006;2022-07-06T08:57:58;3.53;;;0.70;;
14907;SDS011;7545;52.092;7.006;2022-07-06T09:00:24;4.22;;;0.60;;
14907;SDS011;7545;52.092;7.006;2022-07-06T09:02:50;1.08;;;0.60;;
14907;SDS011;7545;52.092;7.006;2022-07-06T09:05:18;2.47;;;0.68;;
14907;SDS011;7545;52.092;7.006;2022-07-06T09:07:50;3.03;;;1.30;;
14907;SDS011;7545;52.092;7.006;2022-07-06T09:10:17;4.82;;;1.25;;
14907;SDS011;7545;52.092;7.006;2022-07-06T09:12:44;1.95;;;0.65;;
14907;SDS011;7545;52.092;7.006;2022-07-06T09:15:10;3.28;;;1.15;;
14907;SDS011;7545;52.092;7.006;2022-07-06T09:17:39;1.90;;;1.27;;
14907;SDS011;7545;52.092;7.006;2022-07-06T09:20:09;1.15;;;0.70;;
14907;SDS011;7545;52.092;7.006;2022-07-06T09:22:35;2.78;;;0.90;;
14907;SDS011;7545;52.092;7.006;2022-07-06T09:25:06;1.48;;;0.75;;
14907;SDS011;7545;52.092;7.006;2022-07-06T09:27:40;0.75;;;0.50;;
14907;SDS011;7545;52.092;7.006;2022-07-06T09:30:08;2.15;;;0.82;;
14907;SDS011;7545;52.092;7.006;2022-07-06T09:32:39;1.63;;;0.70;;
14907;SDS011;7545;52.092;7.006;2022-07-06T09:35:09;2.85;;;0.60;;
14907;SDS011;7545;52.092;7.006;2022-07-06T09:40:43;1.85;;;0.63;;
14907;SDS011;7545;52.092;7.006;2022-07-06T09:45:39;1.63;;;0.85;;
14907;SDS011;7545;52.092;7.006;2022-07-06T09:48:10;0.95;;;0.50;;
14907;SDS011;7545;52.092;7.006;2022-07-06T09:50:39;0.82;;;0.60;;
14907;SDS011;7545;52.092;7.006;2022-07-06T09:53:06;1.45;;;0.73;;
14907;SDS011;7545;52.092;7.006;2022-07-06T09:55:32;4.78;;;0.43;;
14907;SDS011;7545;52.092;7.006;2022-07-06T09:57:58;0.57;;;0.30;;
14907;SDS011;7545;52.092;7.006;2022-07-06T10:00:23;1.45;;;0.60;;
14907;SDS011;7545;52.092;7.006;2022-07-06T10:02:49;1.73;;;0.50;;
14907;SDS011;7545;52.092;7.006;2022-07-06T10:05:17;1.80;;;0.82;;
14907;SDS011;7545;52.092;7.006;2022-07-06T10:07:45;0.68;;;0.32;;
14907;SDS011;7545;52.092;7.006;2022-07-06T10:10:15;1.48;;;0.60;;
14907;SDS011;7545;52.092;7.006;2022-07-06T10:12:42;2.88;;;0.57;;
14907;SDS011;7545;52.092;7.006;2022-07-06T10:15:13;1.10;;;0.55;;
14907;SDS011;7545;52.092;7.006;2022-07-06T10:17:40;1.95;;;0.70;;
14907;SDS011;7545;52.092;7.006;2022-07-06T10:20:06;1.13;;;0.45;;
14907;SDS011;7545;52.092;7.006;2022-07-06T10:22:34;1.27;;;0.40;;
14907;SDS011;7545;52.092;7.006;2022-07-06T10:25:00;2.33;;;0.70;;
14907;SDS011;7545;52.092;7.006;2022-07-06T10:27:28;0.85;;;0.40;;
14907;SDS011;7545;52.092;7.006;2022-07-06T10:29:54;0.85;;;0.47;;
14907;SDS011;7545;52.092;7.006;2022-07-06T10:32:19;0.93;;;0.45;;
14907;SDS011;7545;52.092;7.006;2022-07-06T10:34:48;1.30;;;0.70;;
14907;SDS011;7545;52.092;7.006;2022-07-06T10:37:23;1.15;;;0.30;;
14907;SDS011;7545;52.092;7.006;2022-07-06T10:39:52;1.23;;;0.73;;
14907;SDS011;7545;52.092;7.006;2022-07-06T10:50:55;3.47;;;0.52;;
14907;SDS011;7545;52.092;7.006;2022-07-06T10:55:52;0.88;;;0.60;;
14907;SDS011;7545;52.092;7.006;2022-07-06T11:01:06;2.65;;;0.70;;
14907;SDS011;7545;52.092;7.006;2022-07-06T11:03:34;1.42;;;0.60;;
14907;SDS011;7545;52.092;7.006;2022-07-06T11:13:52;0.73;;;0.28;;
14907;SDS011;7545;52.092;7.006;2022-07-06T11:16:20;0.57;;;0.30;;
14907;SDS011;7545;52.092;7.006;2022-07-06T11:18:49;2.22;;;0.52;;
14907;SDS011;7545;52.092;7.006;2022-07-06T11:21:32;0.95;;;0.38;;
14907;SDS011;7545;52.092;7.006;2022-07-06T11:24:00;1.35;;;0.40;;
14907;SDS011;7545;52.092;7.006;2022-07-06T11:26:26;0.88;;;0.35;;
14907;SDS011;7545;52.092;7.006;2022-07-06T11:28:52;0.93;;;0.30;;
14907;SDS011;7545;52.092;7.006;2022-07-06T11:31:18;1.95;;;0.70;;
14907;SDS011;7545;52.092;7.006;2022-07-06T11:33:45;0.75;;;0.30;;
14907;SDS011;7545;52.092;7.006;2022-07-06T11:36:19;1.25;;;0.38;;
14907;SDS011;7545;52.092;7.006;2022-07-06T11:38:48;1.83;;;0.57;;
14907;SDS011;7545;52.092;7.006;2022-07-06T11:41:15;0.70;;;0.40;;
14907;SDS011;7545;52.092;7.006;2022-07-06T11:43:43;1.80;;;0.57;;
14907;SDS011;7545;52.092;7.006;2022-07-06T11:46:26;1.42;;;0.77;;
14907;SDS011;7545;52.092;7.006;2022-07-06T11:48:55;1.20;;;0.77;;
14907;SDS011;7545;52.092;7.006;2022-07-06T11:51:22;0.77;;;0.35;;
14907;SDS011;7545;52.092;7.006;2022-07-06T11:53:50;2.05;;;0.30;;
14907;SDS011;7545;52.092;7.006;2022-07-06T11:56:18;0.77;;;0.40;;
14907;SDS011;7545;52.092;7.006;2022-07-06T11:58:46;1.33;;;0.40;;
14907;SDS011;7545;52.092;7.006;2022-07-06T12:01:14;0.68;;;0.40;;
14907;SDS011;7545;52.092;7.006;2022-07-06T12:03:40;2.95;;;1.10;;
14907;SDS011;7545;52.092;7.006;2022-07-06T12:06:12;1.77;;;0.40;;
14907;SDS011;7545;52.092;7.006;2022-07-06T12:08:56;2.70;;;0.32;;
14907;SDS011;7545;52.092;7.006;2022-07-06T12:11:29;0.70;;;0.50;;
14907;SDS011;7545;52.092;7.006;2022-07-06T12:13:57;1.13;;;0.30;;
14907;SDS011;7545;52.092;7.006;2022-07-06T12:16:31;0.90;;;0.40;;
14907;SDS011;7545;52.092;7.006;2022-07-06T12:19:01;1.75;;;0.57;;
14907;SDS011;7545;52.092;7.006;2022-07-06T12:21:28;4.40;;;0.57;;
14907;SDS011;7545;52.092;7.006;2022-07-06T12:23:55;0.40;;;0.40;;
14907;SDS011;7545;52.092;7.006;2022-07-06T12:26:22;0.95;;;0.47;;
14907;SDS011;7545;52.092;7.006;2022-07-06T12:29:04;3.88;;;0.68;;
14907;SDS011;7545;52.092;7.006;2022-07-06T12:31:38;0.60;;;0.40;;
14907;SDS011;7545;52.092;7.006;2022-07-06T12:34:05;1.70;;;0.50;;
14907;SDS011;7545;52.092;7.006;2022-07-06T12:36:47;1.13;;;0.52;;
14907;SDS011;7545;52.092;7.006;2022-07-06T12:39:16;1.55;;;0.50;;
14907;SDS011;7545;52.092;7.006;2022-07-06T12:41:44;1.83;;;0.30;;
14907;SDS011;7545;52.092;7.006;2022-07-06T12:44:18;0.45;;;0.35;;
14907;SDS011;7545;52.092;7.006;2022-07-06T12:47:01;1.23;;;0.70;;
14907;SDS011;7545;52.092;7.006;2022-07-06T12:49:31;0.88;;;0.45;;
14907;SDS011;7545;52.092;7.006;2022-07-06T12:59:43;1.50;;;0.65;;
14907;SDS011;7545;52.092;7.006;2022-07-06T13:05:06;0.65;;;0.40;;
14907;SDS011;7545;52.092;7.006;2022-07-06T13:07:34;3.65;;;0.40;;
14907;SDS011;7545;52.092;7.006;2022-07-06T13:10:01;1.77;;;0.40;;
14907;SDS011;7545;52.092;7.006;2022-07-06T13:12:32;1.25;;;0.40;;
14907;SDS011;7545;52.092;7.006;2022-07-06T13:14:58;1.50;;;0.50;;
14907;SDS011;7545;52.092;7.006;2022-07-06T13:17:23;1.83;;;0.40;;
14907;SDS011;7545;52.092;7.006;2022-07-06T13:19:49;1.15;;;0.38;;
14907;SDS011;7545;52.092;7.006;2022-07-06T13:22:15;2.15;;;0.70;;
14907;SDS011;7545;52.092;7.006;2022-07-06T13:24:41;0.45;;;0.30;;
14907;SDS011;7545;52.092;7.006;2022-07-06T13:27:07;1.30;;;0.40;;
14907;SDS011;7545;52.092;7.006;2022-07-06T13:29:33;1.52;;;0.32;;
14907;SDS011;7545;52.092;7.006;2022-07-06T13:31:58;1.13;;;0.45;;
14907;SDS011;7545;52.092;7.006;2022-07-06T13:34:24;1.20;;;0.57;;
14907;SDS011;7545;52.092;7.006;2022-07-06T13:36:50;0.30;;;0.30;;
14907;SDS011;7545;52.092;7.006;2022-07-06T13:39:16;1.70;;;0.32;;
14907;SDS011;7545;52.092;7.006;2022-07-06T13:41:42;1.05;;;0.30;;
14907;SDS011;7545;52.092;7.006;2022-07-06T13:44:08;2.05;;;0.73;;
14907;SDS011;7545;52.092;7.006;2022-07-06T13:46:34;0.88;;;0.47;;
14907;SDS011;7545;52.092;7.006;2022-07-06T13:49:02;1.20;;;0.40;;
14907;SDS011;7545;52.092;7.006;2022-07-06T13:51:29;0.82;;;0.32;;
14907;SDS011;7545;52.092;7.006;2022-07-06T13:53:56;0.38;;;0.30;;
14907;SDS011;7545;52.092;7.006;2022-07-06T13:56:22;0.98;;;0.30;;
14907;SDS011;7545;52.092;7.006;2022-07-06T13:58:48;1.10;;;0.30;;
14907;SDS011;7545;52.092;7.006;2022-07-06T14:01:14;2.63;;;0.50;;
14907;SDS011;7545;52.092;7.006;2022-07-06T14:03:39;1.85;;;0.40;;
14907;SDS011;7545;52.092;7.006;2022-07-06T14:06:06;1.75;;;0.30;;
14907;SDS011;7545;52.092;7.006;2022-07-06T14:08:33;0.43;;;0.30;;
14907;SDS011;7545;52.092;7.006;2022-07-06T14:10:59;1.58;;;0.40;;
14907;SDS011;7545;52.092;7.006;2022-07-06T14:13:26;0.68;;;0.20;;
14907;SDS011;7545;52.092;7.006;2022-07-06T14:15:52;0.75;;;0.30;;
14907;SDS011;7545;52.092;7.006;2022-07-06T14:18:18;0.40;;;0.30;;
14907;SDS011;7545;52.092;7.006;2022-07-06T14:20:44;0.57;;;0.40;;
14907;SDS011;7545;52.092;7.006;2022-07-06T14:23:12;1.95;;;0.50;;
14907;SDS011;7545;52.092;7.006;2022-07-06T14:25:39;2.00;;;0.57;;
14907;SDS011;7545;52.092;7.006;2022-07-06T14:28:05;1.50;;;0.30;;
14907;SDS011;7545;52.092;7.006;2022-07-06T14:30:31;0.70;;;0.40;;
14907;SDS011;7545;52.092;7.006;2022-07-06T14:33:05;0.85;;;0.32;;
14907;SDS011;7545;52.092;7.006;2022-07-06T14:35:33;2.10;;;0.40;;
14907;SDS011;7545;52.092;7.006;2022-07-06T14:38:02;1.48;;;0.30;;
14907;SDS011;7545;52.092;7.006;2022-07-06T14:40:29;0.63;;;0.25;;
14907;SDS011;7545;52.092;7.006;2022-07-06T14:42:55;2.22;;;0.80;;
14907;SDS011;7545;52.092;7.006;2022-07-06T14:45:21;1.50;;;0.45;;
14907;SDS011;7545;52.092;7.006;2022-07-06T14:47:46;0.40;;;0.30;;
14907;SDS011;7545;52.092;7.006;2022-07-06T14:50:12;3.60;;;0.40;;
14907;SDS011;7545;52.092;7.006;2022-07-06T14:52:38;0.93;;;0.40;;
14907;SDS011;7545;52.092;7.006;2022-07-06T14:55:04;0.88;;;0.38;;
14907;SDS011;7545;52.092;7.006;2022-07-06T14:57:29;1.42;;;0.50;;
14907;SDS011;7545;52.092;7.006;2022-07-06T14:59:55;2.10;;;0.60;;
14907;SDS011;7545;52.092;7.006;2022-07-06T15:02:21;2.67;;;0.70;;
14907;SDS011;7545;52.092;7.006;2022-07-06T15:04:46;1.10;;;0.40;;
14907;SDS011;7545;52.092;7.006;2022-07-06T15:07:12;1.40;;;0.55;;
14907;SDS011;7545;52.092;7.006;2022-07-06T15:09:38;1.95;;;0.40;;
14907;SDS011;7545;52.092;7.006;2022-07-06T15:12:04;2.15;;;0.95;;
14907;SDS011;7545;52.092;7.006;2022-07-06T15:14:31;1.80;;;0.35;;
14907;SDS011;7545;52.092;7.006;2022-07-06T15:16:56;0.63;;;0.50;;
14907;SDS011;7545;52.092;7.006;2022-07-06T15:19:23;3.10;;;0.50;;
14907;SDS011;7545;52.092;7.006;2022-07-06T15:21:49;3.60;;;0.70;;
14907;SDS011;7545;52.092;7.006;2022-07-06T15:24:15;2.60;;;1.50;;
14907;SDS011;7545;52.092;7.006;2022-07-06T15:26:40;2.10;;;0.50;;
14907;SDS011;7545;52.092;7.006;2022-07-06T15:29:06;0.98;;;0.40;;
14907;SDS011;7545;52.092;7.006;2022-07-06T15:31:32;4.38;;;0.68;;
14907;SDS011;7545;52.092;7.006;2022-07-06T15:33:57;1.95;;;0.60;;
14907;SDS011;7545;52.092;7.006;2022-07-06T15:36:23;1.45;;;0.75;;
14907;SDS011;7545;52.092;7.006;2022-07-06T15:38:49;1.17;;;0.50;;